createdAt,value
2018-12-25T00:02:36.519Z,81.79
2018-12-25T00:06:10.534Z,82.05
2018-12-25T00:09:17.461Z,81.86
2018-12-25T00:12:36.003Z,81.74
2018-12-25T00:15:38.538Z,81.65
2018-12-25T00:18:39.057Z,81.67
2018-12-25T00:21:32.984Z,81.72
2018-12-25T00:24:14.086Z,81.56
2018-12-25T00:26:50.628Z,81.54
2018-12-25T00:29:17.768Z,81.58
2018-12-25T00:31:48.723Z,81.58
2018-12-25T00:34:30.142Z,81.66
2018-12-25T00:37:26.589Z,81.39
2018-12-25T00:39:54.159Z,81.51
2018-12-25T00:42:25.122Z,81.18
2018-12-25T00:44:53.679Z,81.49
2018-12-25T00:47:21.639Z,81.44
2018-12-25T00:49:58.023Z,81.80
2018-12-25T00:52:40.993Z,81.45
2018-12-25T00:55:08.453Z,81.37
2018-12-25T00:57:43.942Z,81.03
2018-12-25T01:00:22.257Z,81.01
2018-12-25T01:02:50.034Z,80.75
2018-12-25T01:05:17.684Z,81.01
2018-12-25T01:07:47.578Z,80.84
2018-12-25T01:10:23.998Z,80.81
2018-12-25T01:12:54.079Z,80.52
2018-12-25T01:15:25.559Z,80.62
2018-12-25T01:17:55.254Z,80.72
2018-12-25T01:20:34.203Z,80.75
2018-12-25T01:23:06.995Z,80.81
2018-12-25T01:25:41.158Z,80.50
2018-12-25T01:28:23.359Z,80.46
2018-12-25T01:30:54.160Z,80.20
2018-12-25T01:33:35.148Z,80.21
2018-12-25T01:36:12.024Z,79.94
2018-12-25T01:38:39.719Z,79.70
2018-12-25T01:41:13.233Z,79.88
2018-12-25T01:43:41.114Z,79.87
2018-12-25T01:46:13.454Z,79.74
2018-12-25T01:48:45.526Z,79.77
2018-12-25T01:51:13.299Z,79.74
2018-12-25T01:53:43.199Z,79.72
2018-12-25T01:56:11.437Z,79.54
2018-12-25T01:58:39.019Z,79.61
2018-12-25T02:01:28.214Z,79.65
2018-12-25T02:04:04.960Z,79.64
2018-12-25T02:06:32.694Z,80.03
2018-12-25T02:09:17.653Z,79.93
2018-12-25T02:11:50.387Z,79.93
2018-12-25T02:14:24.718Z,79.66
2018-12-25T02:17:02.624Z,79.87
2018-12-25T02:19:40.238Z,79.85
2018-12-25T02:22:03.524Z,79.85
2018-12-25T02:24:55.020Z,79.82
2018-12-25T02:27:26.618Z,79.63
2018-12-25T02:29:57.784Z,79.79
2018-12-25T02:32:31.139Z,79.82
2018-12-25T02:34:58.794Z,79.87
2018-12-25T02:37:27.918Z,79.86
2018-12-25T02:40:03.469Z,80.04
2018-12-25T02:42:38.839Z,79.74
2018-12-25T02:45:15.799Z,79.76
2018-12-25T02:47:44.365Z,79.42
2018-12-25T02:50:12.030Z,79.63
2018-12-25T02:52:39.659Z,79.64
2018-12-25T02:58:22.072Z,80.09
2018-12-25T03:00:54.880Z,80.25
2018-12-25T03:03:25.304Z,80.25
2018-12-25T03:06:01.253Z,80.44
2018-12-25T03:08:28.975Z,80.73
2018-12-25T03:10:56.509Z,80.35
2018-12-25T03:13:44.328Z,80.65
2018-12-25T03:16:11.882Z,80.87
2018-12-25T03:18:51.318Z,80.80
2018-12-25T03:21:26.379Z,80.51
2018-12-25T03:23:57.739Z,80.73
2018-12-25T03:26:25.500Z,80.63
2018-12-25T03:28:53.502Z,80.49
2018-12-25T03:31:21.814Z,80.63
2018-12-25T03:33:49.374Z,80.35
2018-12-25T03:36:17.073Z,80.37
2018-12-25T03:38:44.556Z,80.47
2018-12-25T03:41:12.101Z,80.20
2018-12-25T03:43:39.613Z,79.93
2018-12-25T03:46:07.125Z,80.19
2018-12-25T03:48:34.721Z,79.97
2018-12-25T03:51:07.003Z,80.30
2018-12-25T03:53:34.340Z,79.99
2018-12-25T03:56:02.048Z,80.35
2018-12-25T03:58:29.715Z,80.21
2018-12-25T04:00:57.391Z,80.38
2018-12-25T04:03:24.916Z,80.39
2018-12-25T04:05:52.355Z,80.41
2018-12-25T04:08:20.102Z,79.68
2018-12-25T04:10:48.042Z,79.90
2018-12-25T04:13:15.624Z,80.20
2018-12-25T04:15:43.149Z,80.07
2018-12-25T04:18:10.810Z,79.87
2018-12-25T04:21:16.492Z,80.07
2018-12-25T04:23:15.679Z,79.98
2018-12-25T04:25:43.126Z,80.53
2018-12-25T04:28:10.765Z,80.26
2018-12-25T04:30:38.199Z,80.09
2018-12-25T04:33:10.228Z,80.29
2018-12-25T04:35:37.740Z,80.29
2018-12-25T04:38:05.320Z,80.59
2018-12-25T04:40:32.816Z,80.72
2018-12-25T04:43:00.429Z,81.03
2018-12-25T04:45:28.104Z,80.94
2018-12-25T04:47:55.734Z,80.91
2018-12-25T04:50:29.149Z,81.03
2018-12-25T04:52:52.674Z,81.00
2018-12-25T04:55:20.163Z,80.81
2018-12-25T04:57:47.697Z,81.18
2018-12-25T05:00:15.136Z,81.02
2018-12-25T05:02:42.712Z,80.90
2018-12-25T05:05:10.251Z,81.01
2018-12-25T05:07:37.768Z,81.15
2018-12-25T05:10:05.331Z,81.30
2018-12-25T05:12:32.902Z,81.20
2018-12-25T05:15:00.390Z,81.18
2018-12-25T05:17:27.990Z,81.21
2018-12-25T05:19:55.924Z,81.18
2018-12-25T05:22:23.438Z,81.05
2018-12-25T05:24:50.996Z,80.95
2018-12-25T05:27:18.546Z,81.02
2018-12-25T05:29:46.076Z,81.15
2018-12-25T05:32:13.552Z,81.14
2018-12-25T05:34:41.161Z,81.32
2018-12-25T05:37:08.702Z,81.22
2018-12-25T05:39:36.256Z,81.22
2018-12-25T05:42:03.835Z,81.14
2018-12-25T05:44:31.476Z,81.37
2018-12-25T05:46:59.016Z,81.21
2018-12-25T05:49:26.527Z,81.23
2018-12-25T05:51:54.222Z,81.27
2018-12-25T05:54:21.780Z,81.29
2018-12-25T05:56:49.276Z,81.42
2018-12-25T05:59:16.857Z,81.41
2018-12-25T06:01:44.371Z,81.41
2018-12-25T06:04:12.575Z,81.39
2018-12-25T06:06:40.081Z,81.45
2018-12-25T06:09:07.626Z,81.27
2018-12-25T06:11:35.201Z,81.80
2018-12-25T06:14:02.802Z,81.87
2018-12-25T06:16:30.264Z,82.24
2018-12-25T06:18:57.856Z,82.59
2018-12-25T06:21:25.346Z,82.83
2018-12-25T06:23:53.031Z,82.57
2018-12-25T06:26:20.877Z,82.41
2018-12-25T06:28:48.366Z,82.92
2018-12-25T06:31:16.946Z,82.84
2018-12-25T06:33:48.220Z,83.15
2018-12-25T06:36:15.786Z,83.32
2018-12-25T06:38:44.287Z,83.45
2018-12-25T06:41:11.922Z,83.56
2018-12-25T06:43:39.483Z,83.66
2018-12-25T06:46:07.027Z,83.67
2018-12-25T06:48:34.550Z,84.01
2018-12-25T06:51:04.014Z,84.05
2018-12-25T06:53:31.764Z,84.13
2018-12-25T06:55:59.362Z,84.24
2018-12-25T06:58:26.887Z,84.41
2018-12-25T07:00:54.466Z,84.46
2018-12-25T07:03:22.071Z,84.59
2018-12-25T07:05:49.646Z,84.50
2018-12-25T07:08:17.170Z,84.51
2018-12-25T07:10:44.887Z,84.45
2018-12-25T07:13:12.416Z,84.30
2018-12-25T07:15:39.952Z,83.86
2018-12-25T07:18:07.711Z,83.97
2018-12-25T07:20:35.406Z,84.15
2018-12-25T07:23:02.906Z,84.07
2018-12-25T07:25:30.481Z,84.26
2018-12-25T07:27:57.990Z,84.40
2018-12-25T07:30:25.526Z,84.22
2018-12-25T07:32:53.095Z,84.00
2018-12-25T07:35:20.695Z,83.95
2018-12-25T07:37:48.200Z,84.06
2018-12-25T07:40:15.755Z,84.04
2018-12-25T07:42:43.420Z,83.99
2018-12-25T07:45:11.055Z,84.32
2018-12-25T07:47:38.575Z,84.15
2018-12-25T07:50:06.726Z,84.09
2018-12-25T07:52:34.235Z,84.11
2018-12-25T07:55:01.801Z,83.72
2018-12-25T07:57:29.405Z,83.57
2018-12-25T07:59:56.900Z,83.56
2018-12-25T08:02:24.481Z,83.18
2018-12-25T08:04:52.003Z,83.06
2018-12-25T08:07:19.691Z,83.18
2018-12-25T08:09:47.460Z,83.26
2018-12-25T08:12:15.290Z,82.69
2018-12-25T08:14:45.045Z,82.82
2018-12-25T08:17:12.610Z,82.58
2018-12-25T08:23:14.481Z,82.08
2018-12-25T08:25:47.850Z,81.52
2018-12-25T08:28:15.396Z,81.75
2018-12-25T08:30:43.101Z,81.49
2018-12-25T08:33:10.820Z,81.27
2018-12-25T08:35:38.295Z,81.10
2018-12-25T08:38:06.010Z,81.39
2018-12-25T08:40:33.725Z,81.16
2018-12-25T08:43:01.474Z,81.52
2018-12-25T08:45:51.540Z,81.80
2018-12-25T08:48:19.270Z,81.70
2018-12-25T08:51:00.913Z,81.74
2018-12-25T08:53:28.526Z,81.61
2018-12-25T08:55:56.460Z,81.62
2018-12-25T08:58:32.400Z,81.77
2018-12-25T09:00:59.958Z,81.87
2018-12-25T09:03:27.495Z,81.54
2018-12-25T09:05:55.060Z,81.43
2018-12-25T09:08:25.238Z,81.03
2018-12-25T09:10:52.856Z,80.60
2018-12-25T09:13:20.904Z,81.23
2018-12-25T09:15:48.600Z,81.16
2018-12-25T09:18:34.074Z,81.03
2018-12-25T09:21:37.400Z,80.81
2018-12-25T09:36:03.371Z,80.05
2018-12-25T09:54:12.454Z,79.22
2018-12-25T10:08:05.664Z,77.02
2018-12-25T10:10:33.975Z,76.49
2018-12-25T10:13:38.584Z,76.51
2018-12-25T10:17:06.280Z,76.37
2018-12-25T10:20:35.642Z,76.53
2018-12-25T10:27:18.451Z,76.44
2018-12-25T10:30:32.218Z,76.85
2018-12-25T11:13:13.147Z,76.72
2018-12-25T11:39:29.770Z,77.02
2018-12-25T11:40:44.354Z,76.96
2018-12-25T12:00:51.476Z,76.41
2018-12-25T12:51:39.384Z,76.96
2018-12-25T12:58:20.660Z,77.46
2018-12-25T13:08:35.943Z,78.20
2018-12-25T13:11:05.253Z,78.51
2018-12-25T13:13:36.324Z,78.53
2018-12-25T13:25:15.586Z,79.28
2018-12-25T13:28:13.374Z,79.34
2018-12-25T13:31:02.022Z,78.84
2018-12-25T13:37:18.820Z,79.07
2018-12-25T13:44:21.800Z,78.78
2018-12-25T14:02:20.706Z,78.08
2018-12-25T14:30:03.784Z,77.53
2018-12-25T14:32:53.015Z,77.43
2018-12-25T14:36:19.884Z,77.08
2018-12-25T14:42:16.255Z,77.23
2018-12-25T14:45:36.464Z,76.57
2018-12-25T14:48:06.900Z,76.86
2018-12-25T14:50:49.106Z,76.87
2018-12-25T14:57:23.586Z,77.06
2018-12-25T14:59:54.431Z,76.87
2018-12-25T15:02:21.857Z,77.26
2018-12-25T15:04:49.466Z,77.41
2018-12-25T15:08:00.743Z,77.46
2018-12-25T15:10:51.804Z,77.58
2018-12-25T15:28:56.751Z,77.80
2018-12-25T15:35:23.010Z,77.97
2018-12-25T16:12:41.962Z,78.47
2018-12-25T16:15:28.980Z,78.44
2018-12-25T16:19:18.749Z,77.94
2018-12-25T16:22:20.417Z,78.19
2018-12-25T16:25:09.095Z,78.21
2018-12-25T16:30:46.892Z,78.16
2018-12-25T16:33:38.644Z,78.61
2018-12-25T16:44:58.721Z,78.79
2018-12-25T16:48:06.866Z,78.63
2018-12-25T17:00:54.833Z,79.13
2018-12-25T17:06:12.940Z,78.93
2018-12-25T17:08:42.961Z,78.67
2018-12-25T17:15:16.826Z,78.64
2018-12-25T17:18:12.601Z,78.87
2018-12-25T17:20:44.280Z,78.72
2018-12-25T17:23:16.309Z,78.91
2018-12-25T17:25:55.848Z,79.03
2018-12-25T17:28:45.740Z,78.97
2018-12-25T17:31:13.691Z,78.92
2018-12-25T17:33:41.708Z,78.98
2018-12-25T17:40:32.220Z,79.22
2018-12-25T17:42:49.192Z,79.16
2018-12-25T17:46:14.826Z,79.14
2018-12-25T17:48:53.496Z,79.23
2018-12-25T17:51:22.081Z,79.61
2018-12-25T17:57:14.800Z,79.10
2018-12-25T18:00:20.205Z,79.02
2018-12-25T18:11:01.730Z,79.44
2018-12-25T18:21:28.366Z,80.04
2018-12-25T18:24:21.905Z,79.88
2018-12-25T18:26:49.796Z,79.71
2018-12-25T19:09:41.632Z,80.41
2018-12-25T19:13:28.655Z,80.38
2018-12-25T19:20:36.909Z,80.30
2018-12-25T19:23:18.046Z,80.34
2018-12-25T19:23:33.146Z,80.51
2018-12-25T19:36:25.867Z,80.50
2018-12-25T19:42:36.261Z,79.94
2018-12-25T19:52:33.010Z,80.22
2018-12-25T20:03:18.311Z,80.15
2018-12-25T20:16:32.770Z,80.40
2018-12-25T20:20:02.376Z,80.42
2018-12-25T20:33:16.550Z,80.30
2018-12-25T20:40:09.077Z,80.31
2018-12-25T20:44:23.905Z,80.19
2018-12-25T20:53:49.635Z,79.87
2018-12-25T21:08:08.542Z,80.48
2018-12-25T21:11:36.095Z,80.05
2018-12-25T21:14:48.551Z,80.05
2018-12-25T21:17:56.695Z,79.79
2018-12-25T21:21:35.318Z,79.77
2018-12-25T21:24:32.752Z,79.62
2018-12-25T21:27:33.338Z,79.76
2018-12-25T21:30:30.309Z,79.80
2018-12-25T21:38:01.691Z,79.82
2018-12-25T21:45:08.948Z,79.78
2018-12-25T21:49:00.480Z,79.73
2018-12-25T21:51:30.991Z,79.63
2018-12-25T21:54:34.072Z,79.46
2018-12-25T21:57:23.526Z,79.42
2018-12-25T22:00:18.426Z,79.27
2018-12-25T22:03:04.972Z,79.66
2018-12-25T22:05:33.331Z,79.61
2018-12-25T22:08:01.771Z,79.49
2018-12-25T22:10:33.765Z,79.29
2018-12-25T22:17:31.399Z,78.94
2018-12-25T22:20:52.160Z,79.35
2018-12-25T22:36:19.096Z,79.16
2018-12-25T22:39:31.022Z,79.06
2018-12-25T22:42:01.588Z,79.28
2018-12-25T22:44:38.671Z,79.17
2018-12-25T22:47:16.080Z,79.11
2018-12-25T22:49:56.771Z,79.21
2018-12-25T22:52:24.966Z,79.29
2018-12-25T22:55:35.820Z,79.17
2018-12-25T22:58:09.745Z,79.36
2018-12-25T23:07:48.874Z,79.13
2018-12-25T23:10:44.161Z,78.82
2018-12-25T23:13:44.972Z,79.15
2018-12-25T23:17:12.557Z,79.04
2018-12-25T23:19:49.301Z,79.21
2018-12-25T23:22:37.542Z,79.06
2018-12-25T23:26:05.016Z,78.98
2018-12-25T23:29:05.176Z,79.02
2018-12-25T23:32:55.404Z,78.77
2018-12-25T23:35:24.444Z,78.84
2018-12-25T23:38:55.836Z,78.97
2018-12-25T23:41:36.549Z,78.89
2018-12-25T23:44:04.367Z,78.80
2018-12-25T23:47:16.432Z,78.81
2018-12-25T23:49:47.417Z,78.74
2018-12-25T23:52:24.710Z,78.73
2018-12-25T23:55:24.933Z,79.04
2018-12-25T23:58:26.461Z,78.92
